createdAt,value
2023-02-11T00:05:07.707Z,102547.59
2023-02-11T00:12:43.395Z,102542.44
2023-02-11T00:20:17.632Z,102547.59
2023-02-11T00:27:52.805Z,102563.41
2023-02-11T00:35:26.649Z,102528.53
2023-02-11T00:43:01.735Z,102511.34
2023-02-11T00:50:35.602Z,102528.78
2023-02-11T00:58:10.724Z,102551.47
2023-02-11T01:05:44.642Z,102530.22
2023-02-11T01:13:20.073Z,102522.09
2023-02-11T01:20:54.401Z,102504.41
2023-02-11T01:28:31.231Z,102484.06
2023-02-11T01:36:06.890Z,102480.69
2023-02-11T01:43:44.148Z,102468.03
2023-02-11T01:51:21.796Z,102457.22
2023-02-11T01:59:04.131Z,102444.94
2023-02-11T02:06:45.174Z,102441.69
2023-02-11T02:14:20.652Z,102420.47
2023-02-11T02:22:34.825Z,102405.78
2023-02-11T02:30:47.774Z,102406.91
2023-02-11T02:38:28.908Z,102403.88
2023-02-11T02:46:13.098Z,102423.09
2023-02-11T02:54:03.584Z,102386.19
2023-02-11T03:01:47.128Z,102375.22
2023-02-11T03:09:28.917Z,102373.81
2023-02-11T03:17:06.571Z,102359.25
2023-02-11T03:24:43.099Z,102356.81
2023-02-11T03:32:24.435Z,102366.47
2023-02-11T03:40:04.168Z,102372.16
2023-02-11T03:47:41.214Z,102368.63
2023-02-11T03:55:19.264Z,102363.84
2023-02-11T04:02:53.020Z,102371.34
2023-02-11T04:10:28.274Z,102361.81
2023-02-11T04:18:02.098Z,102348.69
2023-02-11T04:25:37.824Z,102366.38
2023-02-11T04:33:11.825Z,102371.13
2023-02-11T04:40:47.020Z,102355.78
2023-02-11T04:48:20.815Z,102355.16
2023-02-11T04:55:56.121Z,102341.25
2023-02-11T05:03:30.315Z,102338.59
2023-02-11T05:11:05.888Z,102325.47
2023-02-11T05:18:40.166Z,102312.16
2023-02-11T05:26:16.158Z,102299.13
2023-02-11T05:33:50.068Z,102290.47
2023-02-11T05:41:25.536Z,102278.22
2023-02-11T05:48:59.348Z,102272.34
2023-02-11T05:56:34.760Z,102266.00
2023-02-11T06:04:08.749Z,102258.81
2023-02-11T06:11:43.993Z,102269.06
2023-02-11T06:19:17.716Z,102278.19
2023-02-11T06:26:53.069Z,102287.72
2023-02-11T06:34:27.072Z,102281.72
2023-02-11T06:42:02.382Z,102272.94
2023-02-11T06:49:36.312Z,102266.13
2023-02-11T06:57:11.560Z,102265.84
2023-02-11T07:04:45.302Z,102275.50
2023-02-11T07:12:20.724Z,102273.78
2023-02-11T07:19:54.529Z,102266.72
2023-02-11T07:27:29.801Z,102257.06
2023-02-11T07:35:03.990Z,102247.75
2023-02-11T07:42:40.489Z,102241.31
2023-02-11T07:50:14.320Z,102251.72
2023-02-11T07:57:49.628Z,102254.22
2023-02-11T08:05:23.835Z,102251.22
2023-02-11T08:12:59.045Z,102242.53
2023-02-11T08:20:32.999Z,102257.53
2023-02-11T08:28:09.206Z,102295.16
2023-02-11T08:35:43.293Z,102291.75
2023-02-11T08:43:18.529Z,102285.53
2023-02-11T08:50:52.339Z,102301.00
2023-02-11T08:58:27.512Z,102279.22
2023-02-11T09:06:01.353Z,102262.66
2023-02-11T09:13:36.586Z,102262.84
2023-02-11T09:21:11.444Z,102280.72
2023-02-11T09:28:47.354Z,102298.63
2023-02-11T09:36:23.617Z,102293.84
2023-02-11T09:44:02.938Z,102288.81
2023-02-11T09:51:44.535Z,102293.72
2023-02-11T09:59:20.337Z,102319.69
2023-02-11T10:06:57.186Z,102333.88
2023-02-11T10:14:51.100Z,102331.75
2023-02-11T10:22:29.615Z,102331.84
2023-02-11T10:30:10.899Z,102330.00
2023-02-11T10:37:44.969Z,102326.34
2023-02-11T10:45:26.651Z,102331.47
2023-02-11T10:53:19.853Z,102327.91
2023-02-11T11:00:58.215Z,102330.75
2023-02-11T11:08:44.384Z,102304.38
2023-02-11T11:16:23.406Z,102298.97
2023-02-11T11:24:01.005Z,102304.28
2023-02-11T11:31:48.109Z,102298.16
2023-02-11T11:39:25.687Z,102302.06
2023-02-11T11:47:23.259Z,102315.44
2023-02-11T11:55:06.077Z,102303.00
2023-02-11T12:03:11.699Z,102308.41
2023-02-11T12:11:04.044Z,102302.69
2023-02-11T12:19:00.557Z,102303.94
2023-02-11T12:26:42.862Z,102287.09
2023-02-11T12:34:35.702Z,102292.84
2023-02-11T12:42:40.648Z,102291.13
2023-02-11T12:50:22.781Z,102278.91
2023-02-11T12:58:00.183Z,102283.56
2023-02-11T13:05:41.637Z,102288.53
2023-02-11T13:13:20.276Z,102286.47
2023-02-11T13:21:04.858Z,102298.72
2023-02-11T13:28:50.844Z,102302.06
2023-02-11T13:36:27.640Z,102324.97
2023-02-11T13:44:19.369Z,102324.00
2023-02-11T13:51:56.729Z,102333.69
2023-02-11T13:59:48.659Z,102340.09
2023-02-11T14:07:47.175Z,102340.72
2023-02-11T14:15:23.075Z,102347.56
2023-02-11T14:22:58.395Z,102347.91
2023-02-11T14:30:43.085Z,102361.25
2023-02-11T14:38:28.080Z,102355.59
2023-02-11T14:46:02.840Z,102361.97
2023-02-11T14:53:41.939Z,102358.19
2023-02-11T15:01:31.666Z,102355.78
2023-02-11T15:09:14.836Z,102382.97
2023-02-11T15:16:50.137Z,102396.06
2023-02-11T15:24:28.399Z,102407.78
2023-02-11T15:32:07.855Z,102402.50
2023-02-11T15:39:43.317Z,102392.63
2023-02-11T15:47:22.712Z,102414.13
2023-02-11T15:55:01.738Z,102419.09
2023-02-11T16:02:44.841Z,102413.94
2023-02-11T16:10:26.786Z,102417.41
2023-02-11T16:18:01.831Z,102422.00
2023-02-11T16:25:37.402Z,102455.59
2023-02-11T16:33:12.693Z,102450.56
2023-02-11T16:40:50.027Z,102439.44
2023-02-11T16:48:23.892Z,102440.94
2023-02-11T16:56:00.613Z,102449.00
2023-02-11T17:03:37.690Z,102478.44
2023-02-11T17:11:16.759Z,102485.59
2023-02-11T17:18:50.772Z,102483.03
2023-02-11T17:26:26.261Z,102499.25
2023-02-11T17:34:00.881Z,102503.28
2023-02-11T17:41:37.497Z,102523.25
2023-02-11T17:49:11.875Z,102532.09
2023-02-11T17:56:50.771Z,102539.19
2023-02-11T18:04:24.951Z,102548.78
2023-02-11T18:12:00.271Z,102566.66
2023-02-11T18:19:36.666Z,102570.03
2023-02-11T18:27:12.040Z,102579.94
2023-02-11T18:34:46.753Z,102581.03
2023-02-11T18:42:22.129Z,102594.81
2023-02-11T18:49:56.480Z,102616.06
2023-02-11T18:57:31.762Z,102627.47
2023-02-11T19:05:06.450Z,102630.31
2023-02-11T19:12:41.995Z,102650.69
2023-02-11T19:20:15.864Z,102653.34
2023-02-11T19:27:51.412Z,102654.22
2023-02-11T19:35:27.431Z,102673.66
2023-02-11T19:43:02.864Z,102676.41
2023-02-11T19:50:36.709Z,102658.38
2023-02-11T19:58:11.938Z,102668.81
2023-02-11T20:05:47.892Z,102678.34
2023-02-11T20:13:23.132Z,102691.34
2023-02-11T20:20:57.064Z,102709.66
2023-02-11T20:28:32.460Z,102714.59
2023-02-11T20:36:09.199Z,102712.66
2023-02-11T20:43:47.138Z,102726.59
2023-02-11T20:51:23.960Z,102736.56
2023-02-11T20:58:59.800Z,102739.13
2023-02-11T21:06:36.510Z,102749.56
2023-02-11T21:14:13.627Z,102761.03
2023-02-11T21:21:47.487Z,102767.66
2023-02-11T21:29:22.807Z,102783.13
2023-02-11T21:36:56.893Z,102783.66
2023-02-11T21:44:32.766Z,102803.06
2023-02-11T21:52:06.867Z,102809.19
2023-02-11T21:59:42.124Z,102803.47
2023-02-11T22:07:15.944Z,102834.44
2023-02-11T22:14:51.436Z,102843.81
2023-02-11T22:22:25.380Z,102849.13
2023-02-11T22:30:00.747Z,102848.00
2023-02-11T22:37:34.637Z,102864.66
2023-02-11T22:45:11.084Z,102885.88
2023-02-11T22:52:44.913Z,102888.13
2023-02-11T23:00:22.689Z,102900.41
2023-02-11T23:07:56.513Z,102919.66
2023-02-11T23:15:32.074Z,102911.41
2023-02-11T23:23:06.546Z,102915.91
2023-02-11T23:30:42.393Z,102930.69
2023-02-11T23:38:17.203Z,102930.50
2023-02-11T23:45:53.252Z,102931.53
2023-02-11T23:53:27.287Z,102944.78
